createdAt,value
2023-06-20T00:00:07.609Z,8.80
2023-06-20T00:02:34.756Z,9.80
2023-06-20T00:05:03.665Z,10.50
2023-06-20T00:07:31.028Z,8.80
2023-06-20T00:09:58.300Z,8.30
2023-06-20T00:12:25.359Z,9.30
2023-06-20T00:14:52.397Z,8.30
2023-06-20T00:17:19.467Z,8.10
2023-06-20T00:19:46.597Z,7.70
2023-06-20T00:22:13.329Z,8.50
2023-06-20T00:24:40.915Z,8.20
2023-06-20T00:27:07.838Z,8.80
2023-06-20T00:29:35.493Z,8.80
2023-06-20T00:32:02.547Z,9.20
2023-06-20T00:34:29.589Z,8.50
2023-06-20T00:36:56.535Z,9.70
2023-06-20T00:39:23.408Z,8.80
2023-06-20T00:41:50.319Z,11.30
2023-06-20T00:44:17.266Z,8.50
2023-06-20T00:46:44.108Z,8.30
2023-06-20T00:49:11.441Z,9.70
2023-06-20T00:51:38.631Z,8.70
2023-06-20T00:54:05.515Z,11.10
2023-06-20T00:56:33.021Z,8.20
2023-06-20T00:58:59.958Z,8.40
2023-06-20T01:01:32.594Z,8.00
2023-06-20T01:03:59.942Z,8.70
2023-06-20T01:07:00.623Z,9.50
2023-06-20T01:09:39.089Z,10.30
2023-06-20T01:12:14.361Z,8.60
2023-06-20T01:15:01.929Z,8.10
2023-06-20T01:17:35.642Z,9.40
2023-06-20T01:20:26.005Z,8.50
2023-06-20T01:23:11.893Z,8.30
2023-06-20T01:25:47.544Z,8.70
2023-06-20T01:28:47.048Z,10.30
2023-06-20T01:31:16.878Z,9.70
2023-06-20T01:33:57.320Z,9.20
2023-06-20T01:36:25.396Z,10.70
2023-06-20T01:38:55.423Z,8.90
2023-06-20T01:41:23.270Z,8.70
2023-06-20T01:43:51.039Z,8.50
2023-06-20T01:46:18.127Z,8.40
2023-06-20T01:48:45.241Z,8.60
2023-06-20T01:51:12.285Z,8.30
2023-06-20T01:53:39.331Z,9.10
2023-06-20T01:56:06.276Z,7.90
2023-06-20T01:58:34.240Z,9.00
2023-06-20T02:01:01.290Z,8.30
2023-06-20T02:03:28.969Z,7.50
2023-06-20T02:05:57.025Z,11.70
2023-06-20T02:08:24.897Z,8.60
2023-06-20T02:10:51.835Z,8.10
2023-06-20T02:13:21.028Z,9.80
2023-06-20T02:15:48.385Z,7.90
2023-06-20T02:18:15.456Z,8.10
2023-06-20T02:20:42.476Z,8.10
2023-06-20T02:23:10.775Z,8.00
2023-06-20T02:25:39.953Z,8.30
2023-06-20T02:28:07.509Z,8.50
2023-06-20T02:30:34.659Z,9.60
2023-06-20T02:33:01.630Z,8.00
2023-06-20T02:35:29.010Z,10.70
2023-06-20T02:37:57.243Z,10.70
2023-06-20T02:40:24.800Z,9.00
2023-06-20T02:42:53.495Z,8.60
2023-06-20T02:45:21.064Z,8.50
2023-06-20T02:48:02.537Z,7.80
2023-06-20T02:50:46.798Z,9.60
2023-06-20T02:53:32.278Z,12.00
2023-06-20T02:56:02.995Z,8.50
2023-06-20T02:58:30.859Z,9.10
2023-06-20T03:00:58.854Z,8.50
2023-06-20T03:03:27.511Z,9.10
2023-06-20T03:05:57.530Z,8.30
2023-06-20T03:08:30.926Z,10.50
2023-06-20T03:10:58.484Z,8.80
2023-06-20T03:13:25.953Z,10.50
2023-06-20T03:15:55.890Z,9.10
2023-06-20T03:18:23.630Z,9.40
2023-06-20T03:20:50.667Z,8.70
2023-06-20T03:23:17.772Z,9.60
2023-06-20T03:25:45.883Z,10.00
2023-06-20T03:28:15.412Z,9.40
2023-06-20T03:30:45.518Z,8.70
2023-06-20T03:33:12.766Z,9.90
2023-06-20T03:35:40.931Z,9.30
2023-06-20T03:38:08.333Z,8.80
2023-06-20T03:40:35.596Z,9.20
2023-06-20T03:43:03.094Z,10.20
2023-06-20T03:45:31.485Z,9.80
2023-06-20T03:47:58.449Z,9.70
2023-06-20T03:50:25.603Z,9.80
2023-06-20T03:52:53.338Z,12.10
2023-06-20T03:55:20.344Z,10.60
2023-06-20T03:57:47.632Z,10.00
2023-06-20T04:00:15.195Z,10.70
2023-06-20T04:02:42.752Z,10.30
2023-06-20T04:05:10.109Z,9.40
2023-06-20T04:07:43.372Z,10.80
2023-06-20T04:10:11.679Z,10.00
2023-06-20T04:12:40.256Z,10.10
2023-06-20T04:15:08.149Z,11.30
2023-06-20T04:17:35.023Z,9.70
2023-06-20T04:20:08.649Z,9.90
2023-06-20T04:22:35.519Z,10.00
2023-06-20T04:25:02.555Z,14.20
2023-06-20T04:27:29.810Z,12.10
2023-06-20T04:29:58.350Z,12.30
2023-06-20T04:32:26.094Z,12.40
2023-06-20T04:34:53.617Z,11.70
2023-06-20T04:37:23.029Z,11.70
2023-06-20T04:39:50.577Z,13.90
2023-06-20T04:42:18.002Z,12.50
2023-06-20T04:44:45.378Z,14.30
2023-06-20T04:47:13.653Z,15.00
2023-06-20T04:49:44.185Z,16.30
2023-06-20T04:52:11.445Z,15.00
2023-06-20T04:54:38.789Z,16.60
2023-06-20T04:57:05.836Z,17.50
2023-06-20T04:59:36.375Z,19.90
2023-06-20T05:02:06.150Z,19.10
2023-06-20T05:04:33.429Z,16.20
2023-06-20T05:07:01.394Z,18.70
2023-06-20T05:09:28.649Z,18.00
2023-06-20T05:11:59.263Z,17.10
2023-06-20T05:14:28.064Z,17.70
2023-06-20T05:16:55.222Z,21.00
2023-06-20T05:19:22.384Z,16.60
2023-06-20T05:21:49.311Z,18.90
2023-06-20T05:24:16.293Z,17.60
2023-06-20T05:26:43.423Z,16.60
2023-06-20T05:29:10.349Z,16.80
2023-06-20T05:31:42.151Z,15.50
2023-06-20T05:34:09.358Z,16.40
2023-06-20T05:36:37.149Z,13.10
2023-06-20T05:39:04.688Z,13.00
2023-06-20T05:41:31.755Z,13.00
2023-06-20T05:43:59.099Z,10.50
2023-06-20T05:46:26.243Z,10.40
2023-06-20T05:48:53.509Z,10.40
2023-06-20T05:51:20.649Z,11.40
2023-06-20T05:53:47.794Z,10.20
2023-06-20T05:56:14.737Z,9.70
2023-06-20T05:58:42.622Z,9.90
2023-06-20T06:01:11.410Z,9.60
2023-06-20T06:03:39.180Z,13.00
2023-06-20T06:06:10.398Z,10.10
2023-06-20T06:08:37.621Z,9.10
2023-06-20T06:11:04.918Z,9.70
2023-06-20T06:13:32.970Z,9.80
2023-06-20T06:16:01.348Z,10.70
2023-06-20T06:18:31.144Z,9.50
2023-06-20T06:20:58.049Z,9.20
2023-06-20T06:23:25.464Z,10.10
2023-06-20T06:25:53.025Z,8.80
2023-06-20T06:28:19.961Z,9.00
2023-06-20T06:30:47.391Z,10.40
2023-06-20T06:33:14.590Z,10.20
2023-06-20T06:35:43.473Z,8.30
2023-06-20T06:38:10.413Z,7.70
2023-06-20T06:40:37.354Z,8.40
2023-06-20T06:43:04.501Z,7.70
2023-06-20T06:45:33.396Z,9.70
2023-06-20T06:48:00.426Z,7.30
2023-06-20T06:50:27.781Z,7.80
2023-06-20T06:52:54.956Z,7.00
2023-06-20T06:55:23.329Z,12.20
2023-06-20T06:57:50.661Z,9.90
2023-06-20T07:00:18.232Z,7.90
2023-06-20T07:02:45.959Z,7.80
2023-06-20T07:05:13.143Z,7.70
2023-06-20T07:07:40.306Z,8.90
2023-06-20T07:10:08.056Z,9.00
2023-06-20T07:12:34.969Z,7.10
2023-06-20T07:15:01.954Z,6.20
2023-06-20T07:17:29.575Z,6.90
2023-06-20T07:19:56.707Z,6.70
2023-06-20T07:22:24.830Z,7.50
2023-06-20T07:24:53.909Z,9.00
2023-06-20T07:27:23.023Z,8.50
2023-06-20T07:29:49.707Z,7.70
2023-06-20T07:32:17.137Z,7.40
2023-06-20T07:34:44.267Z,6.90
2023-06-20T07:37:11.634Z,7.00
2023-06-20T07:39:43.689Z,7.00
2023-06-20T07:42:12.470Z,6.70
2023-06-20T07:44:39.729Z,11.40
2023-06-20T07:47:07.239Z,6.80
2023-06-20T07:49:34.046Z,6.90
2023-06-20T07:52:00.972Z,7.40
2023-06-20T07:54:28.323Z,6.60
2023-06-20T07:56:55.175Z,6.30
2023-06-20T07:59:22.104Z,8.70
2023-06-20T08:01:49.224Z,6.80
2023-06-20T08:04:16.510Z,6.40
2023-06-20T08:06:43.654Z,6.50
2023-06-20T08:09:10.705Z,7.20
2023-06-20T08:11:38.778Z,6.40
2023-06-20T08:14:05.733Z,6.80
2023-06-20T08:16:33.263Z,6.20
2023-06-20T08:19:00.336Z,7.20
2023-06-20T08:21:27.370Z,6.30
2023-06-20T08:23:54.551Z,7.40
2023-06-20T08:26:22.490Z,9.40
2023-06-20T08:28:49.454Z,6.30
2023-06-20T08:31:16.738Z,5.80
2023-06-20T08:33:43.582Z,7.40
2023-06-20T08:36:11.624Z,5.90
2023-06-20T08:38:39.156Z,7.90
2023-06-20T08:41:10.093Z,7.30
2023-06-20T08:43:37.059Z,7.00
2023-06-20T08:46:03.982Z,5.80
2023-06-20T08:48:31.057Z,6.50
2023-06-20T08:50:58.090Z,6.20
2023-06-20T08:53:25.739Z,6.10
2023-06-20T08:55:53.391Z,5.50
2023-06-20T08:58:22.300Z,8.00
2023-06-20T09:00:49.693Z,8.70
2023-06-20T09:03:17.222Z,5.60
2023-06-20T09:05:47.706Z,6.30
2023-06-20T09:08:17.774Z,5.30
2023-06-20T09:10:45.822Z,7.30
2023-06-20T09:13:13.797Z,5.60
2023-06-20T09:15:41.862Z,6.40
2023-06-20T09:18:12.491Z,5.60
2023-06-20T09:20:43.951Z,6.80
2023-06-20T09:23:11.046Z,6.60
2023-06-20T09:25:40.493Z,5.10
2023-06-20T09:28:14.194Z,5.60
2023-06-20T09:30:45.449Z,4.80
2023-06-20T09:33:14.232Z,7.10
2023-06-20T09:35:41.172Z,5.50
2023-06-20T09:38:08.580Z,6.90
2023-06-20T09:40:45.534Z,7.10
2023-06-20T09:43:12.686Z,5.00
2023-06-20T09:45:40.354Z,5.50
2023-06-20T09:48:10.966Z,7.10
2023-06-20T09:50:38.389Z,5.70
2023-06-20T09:53:40.587Z,5.90
2023-06-20T09:56:07.572Z,4.60
2023-06-20T09:58:35.183Z,5.20
2023-06-20T10:01:02.235Z,4.70
2023-06-20T10:03:29.664Z,4.80
2023-06-20T10:05:56.868Z,5.10
2023-06-20T10:08:23.798Z,5.40
2023-06-20T10:10:51.450Z,5.00
2023-06-20T10:13:19.963Z,5.90
2023-06-20T10:15:48.829Z,5.40
2023-06-20T10:18:30.730Z,5.40
2023-06-20T10:20:57.974Z,4.70
2023-06-20T10:23:31.930Z,6.70
2023-06-20T10:25:59.115Z,4.90
2023-06-20T10:28:26.102Z,4.90
2023-06-20T10:31:03.579Z,5.60
2023-06-20T10:33:35.684Z,4.20
2023-06-20T10:38:45.532Z,5.70
2023-06-20T10:41:33.232Z,5.40
2023-06-20T10:44:01.372Z,5.30
2023-06-20T10:46:35.314Z,4.50
2023-06-20T10:49:05.521Z,5.60
2023-06-20T10:52:03.804Z,6.70
2023-06-20T10:54:36.683Z,4.60
2023-06-20T10:57:05.117Z,6.10
2023-06-20T10:59:32.035Z,5.30
2023-06-20T11:01:58.987Z,4.50
2023-06-20T11:04:26.097Z,9.40
2023-06-20T11:06:53.355Z,4.80
2023-06-20T11:09:21.455Z,4.00
2023-06-20T11:11:49.614Z,6.90
2023-06-20T11:14:19.112Z,4.70
2023-06-20T11:16:47.081Z,4.50
2023-06-20T11:19:31.129Z,7.20
2023-06-20T11:22:02.470Z,8.10
2023-06-20T11:24:31.229Z,6.80
2023-06-20T11:27:11.827Z,4.90
2023-06-20T11:29:38.975Z,4.90
2023-06-20T11:32:10.416Z,3.80
2023-06-20T11:34:54.535Z,4.80
2023-06-20T11:37:22.490Z,4.70
2023-06-20T11:39:49.809Z,4.50
2023-06-20T11:42:17.344Z,4.70
2023-06-20T11:44:44.313Z,5.60
2023-06-20T11:47:11.334Z,4.50
2023-06-20T11:49:39.906Z,4.00
2023-06-20T11:52:08.470Z,7.80
2023-06-20T11:54:52.344Z,8.10
2023-06-20T11:57:29.729Z,4.30
2023-06-20T11:59:59.954Z,3.80
2023-06-20T12:02:29.589Z,9.40
2023-06-20T12:04:59.670Z,4.40
2023-06-20T12:07:27.232Z,3.90
2023-06-20T12:09:54.196Z,7.70
2023-06-20T12:12:31.265Z,7.30
2023-06-20T12:14:58.429Z,6.10
2023-06-20T12:17:25.626Z,4.40
2023-06-20T12:19:53.838Z,5.30
2023-06-20T12:22:21.310Z,5.30
2023-06-20T12:24:48.383Z,6.90
2023-06-20T12:27:16.634Z,5.20
2023-06-20T12:29:43.659Z,4.10
2023-06-20T12:32:10.891Z,5.00
2023-06-20T12:34:38.812Z,3.90
2023-06-20T12:37:07.122Z,4.90
2023-06-20T12:39:35.028Z,4.90
2023-06-20T12:42:02.281Z,5.60
2023-06-20T12:44:29.321Z,4.80
2023-06-20T12:46:56.367Z,4.30
2023-06-20T12:49:23.631Z,4.90
2023-06-20T12:51:50.567Z,4.00
2023-06-20T12:54:19.374Z,5.70
2023-06-20T12:56:46.506Z,4.50
2023-06-20T12:59:13.468Z,4.70
2023-06-20T13:01:43.499Z,6.80
2023-06-20T13:04:10.922Z,4.30
2023-06-20T13:06:37.764Z,4.30
2023-06-20T13:09:06.974Z,4.10
2023-06-20T13:11:34.010Z,5.50
2023-06-20T13:14:00.851Z,4.50
2023-06-20T13:16:29.255Z,4.70
2023-06-20T13:19:01.602Z,3.70
2023-06-20T13:21:30.191Z,3.80
2023-06-20T13:24:09.091Z,3.70
2023-06-20T13:26:37.668Z,4.90
2023-06-20T13:29:04.762Z,3.90
2023-06-20T13:31:31.841Z,3.40
2023-06-20T13:33:59.244Z,4.50
2023-06-20T13:36:29.394Z,3.80
2023-06-20T13:38:57.504Z,2.80
2023-06-20T13:41:24.480Z,4.90
2023-06-20T13:43:51.714Z,3.80
2023-06-20T13:46:22.448Z,3.70
2023-06-20T13:48:51.462Z,3.90
2023-06-20T13:51:18.823Z,4.10
2023-06-20T13:53:46.282Z,3.20
2023-06-20T13:56:13.326Z,4.90
2023-06-20T13:58:40.372Z,5.00
2023-06-20T14:01:07.408Z,5.20
2023-06-20T14:03:34.678Z,4.40
2023-06-20T14:06:02.232Z,4.10
2023-06-20T14:08:29.580Z,6.50
2023-06-20T14:10:56.644Z,5.20
2023-06-20T14:13:23.626Z,5.20
2023-06-20T14:15:50.591Z,6.30
2023-06-20T14:18:17.869Z,4.50
2023-06-20T14:20:44.820Z,4.40
2023-06-20T14:23:11.786Z,7.30
2023-06-20T14:25:38.710Z,6.80
2023-06-20T14:28:05.750Z,5.90
2023-06-20T14:30:33.143Z,5.70
2023-06-20T14:33:00.423Z,4.80
2023-06-20T14:35:27.613Z,5.90
2023-06-20T14:37:54.497Z,4.20
2023-06-20T14:40:24.361Z,5.00
2023-06-20T14:42:51.721Z,5.90
2023-06-20T14:45:18.721Z,5.90
2023-06-20T14:47:46.670Z,4.80
2023-06-20T14:50:13.800Z,5.00
2023-06-20T14:52:41.966Z,5.10
2023-06-20T14:55:08.898Z,4.60
2023-06-20T14:57:35.950Z,6.50
2023-06-20T15:00:03.850Z,4.60
2023-06-20T15:02:31.554Z,5.10
2023-06-20T15:04:58.433Z,6.40
2023-06-20T15:07:25.363Z,7.10
2023-06-20T15:09:52.404Z,5.80
2023-06-20T15:12:19.350Z,7.00
2023-06-20T15:14:46.321Z,4.90
2023-06-20T15:17:13.343Z,4.80
2023-06-20T15:19:40.418Z,6.10
2023-06-20T15:22:07.347Z,3.40
2023-06-20T15:24:36.033Z,4.80
2023-06-20T15:27:04.000Z,3.80
2023-06-20T15:29:32.121Z,3.90
2023-06-20T15:31:59.378Z,6.10
2023-06-20T15:34:28.852Z,4.90
2023-06-20T15:36:55.637Z,5.10
2023-06-20T15:39:22.524Z,4.30
2023-06-20T15:41:49.660Z,4.10
2023-06-20T15:44:16.700Z,5.40
2023-06-20T15:46:53.304Z,4.70
2023-06-20T15:49:22.893Z,5.80
2023-06-20T15:51:49.820Z,4.30
2023-06-20T15:54:16.810Z,4.90
2023-06-20T15:56:43.824Z,4.50
2023-06-20T15:59:10.988Z,4.20
2023-06-20T16:01:38.255Z,5.90
2023-06-20T16:04:05.260Z,5.10
2023-06-20T16:06:34.146Z,4.30
2023-06-20T16:09:01.211Z,6.30
2023-06-20T16:11:30.193Z,6.00
2023-06-20T16:13:57.862Z,7.20
2023-06-20T16:16:25.235Z,4.60
2023-06-20T16:18:52.291Z,4.60
2023-06-20T16:21:19.405Z,4.80
2023-06-20T16:23:47.912Z,5.50
2023-06-20T16:26:15.546Z,4.20
2023-06-20T16:28:43.406Z,6.50
2023-06-20T16:31:10.623Z,4.30
2023-06-20T16:33:49.486Z,4.40
2023-06-20T16:36:18.381Z,4.20
2023-06-20T16:38:45.437Z,4.80
2023-06-20T16:41:12.471Z,4.60
2023-06-20T16:43:40.960Z,4.20
2023-06-20T16:46:09.656Z,4.10
2023-06-20T16:48:36.924Z,4.10
2023-06-20T16:51:03.932Z,5.10
2023-06-20T16:53:30.983Z,6.50
2023-06-20T16:55:57.930Z,4.20
2023-06-20T16:58:24.875Z,4.60
2023-06-20T17:00:51.956Z,5.10
2023-06-20T17:03:19.206Z,4.90
2023-06-20T17:05:46.526Z,4.30
2023-06-20T17:08:13.466Z,5.40
2023-06-20T17:10:41.747Z,4.80
2023-06-20T17:13:09.109Z,6.70
2023-06-20T17:15:35.965Z,4.70
2023-06-20T17:18:03.281Z,4.70
2023-06-20T17:20:30.873Z,5.00
2023-06-20T17:22:57.918Z,4.20
2023-06-20T17:25:24.840Z,5.00
2023-06-20T17:27:51.907Z,5.40
2023-06-20T17:30:19.246Z,4.60
2023-06-20T17:32:46.271Z,5.20
2023-06-20T17:35:13.441Z,4.80
2023-06-20T17:37:40.565Z,6.30
2023-06-20T17:40:08.459Z,5.80
2023-06-20T17:42:36.430Z,5.90
2023-06-20T17:45:04.758Z,7.00
2023-06-20T17:47:32.402Z,5.20
2023-06-20T17:49:59.722Z,5.40
2023-06-20T17:52:26.896Z,5.20
2023-06-20T17:54:54.611Z,5.70
2023-06-20T17:57:21.576Z,5.90
2023-06-20T17:59:48.439Z,7.20
2023-06-20T18:02:16.551Z,7.80
2023-06-20T18:04:43.947Z,5.20
2023-06-20T18:07:11.124Z,6.10
2023-06-20T18:09:38.043Z,6.40
2023-06-20T18:12:05.869Z,5.60
2023-06-20T18:14:33.586Z,5.00
2023-06-20T18:17:00.748Z,6.20
2023-06-20T18:19:34.595Z,7.50
2023-06-20T18:22:09.045Z,9.10
2023-06-20T18:24:36.062Z,5.70
2023-06-20T18:27:04.159Z,6.70
2023-06-20T18:29:31.105Z,6.40
2023-06-20T18:31:57.946Z,6.70
2023-06-20T18:34:25.026Z,7.60
2023-06-20T18:36:52.043Z,5.60
2023-06-20T18:39:18.989Z,7.10
2023-06-20T18:41:46.053Z,10.20
2023-06-20T18:44:19.796Z,6.40
2023-06-20T18:46:47.633Z,7.60
2023-06-20T18:49:14.554Z,7.90
2023-06-20T18:51:41.510Z,5.30
2023-06-20T18:54:09.461Z,6.20
2023-06-20T18:56:37.432Z,6.50
2023-06-20T18:59:04.785Z,7.40
2023-06-20T19:01:32.579Z,6.70
2023-06-20T19:04:00.023Z,5.90
2023-06-20T19:06:27.159Z,7.70
2023-06-20T19:08:54.331Z,6.20
2023-06-20T19:11:21.264Z,6.80
2023-06-20T19:13:48.196Z,6.70
2023-06-20T19:16:15.906Z,6.30
2023-06-20T19:18:43.206Z,8.40
2023-06-20T19:21:10.413Z,6.70
2023-06-20T19:23:37.717Z,7.00
2023-06-20T19:26:05.496Z,8.20
2023-06-20T19:28:32.546Z,6.80
2023-06-20T19:30:59.865Z,6.80
2023-06-20T19:33:27.131Z,8.30
2023-06-20T19:35:54.381Z,7.40
2023-06-20T19:38:21.529Z,8.60
2023-06-20T19:40:48.785Z,8.30
2023-06-20T19:43:15.722Z,10.50
2023-06-20T19:45:44.111Z,10.00
2023-06-20T19:48:12.598Z,7.80
2023-06-20T19:50:39.753Z,8.00
2023-06-20T19:53:07.009Z,10.20
2023-06-20T19:55:34.058Z,8.30
2023-06-20T19:58:03.450Z,11.50
2023-06-20T20:00:31.409Z,10.10
2023-06-20T20:02:58.541Z,9.00
2023-06-20T20:05:26.946Z,7.70
2023-06-20T20:07:53.812Z,7.70
2023-06-20T20:10:20.825Z,9.80
2023-06-20T20:12:47.765Z,11.90
2023-06-20T20:15:14.754Z,9.20
2023-06-20T20:17:44.350Z,8.30
2023-06-20T20:20:11.329Z,8.70
2023-06-20T20:22:39.948Z,8.00
2023-06-20T20:25:12.395Z,8.40
2023-06-20T20:27:41.023Z,8.70
2023-06-20T20:30:08.809Z,11.40
2023-06-20T20:32:36.420Z,10.30
2023-06-20T20:35:04.004Z,8.70
2023-06-20T20:37:31.033Z,10.80
2023-06-20T20:39:58.842Z,9.00
2023-06-20T20:42:25.783Z,8.80
2023-06-20T20:44:52.788Z,9.80
2023-06-20T20:47:19.670Z,8.90
2023-06-20T20:49:46.586Z,12.90
2023-06-20T20:52:13.527Z,10.80
2023-06-20T20:54:40.495Z,8.80
2023-06-20T20:57:07.836Z,9.80
2023-06-20T20:59:35.081Z,8.80
2023-06-20T21:02:02.629Z,9.50
2023-06-20T21:04:30.498Z,9.10
2023-06-20T21:06:57.654Z,9.10
2023-06-20T21:09:24.692Z,11.30
2023-06-20T21:11:51.840Z,8.60
2023-06-20T21:14:19.008Z,9.60
2023-06-20T21:16:46.438Z,9.10
2023-06-20T21:19:13.819Z,9.90
2023-06-20T21:21:41.202Z,9.30
2023-06-20T21:24:08.288Z,9.20
2023-06-20T21:26:35.364Z,9.40
2023-06-20T21:29:02.405Z,11.20
2023-06-20T21:31:29.990Z,8.90
2023-06-20T21:33:59.810Z,10.90
2023-06-20T21:36:29.484Z,13.90
2023-06-20T21:38:56.333Z,8.90
2023-06-20T21:41:24.911Z,8.80
2023-06-20T21:43:51.854Z,9.20
2023-06-20T21:46:20.979Z,8.80
2023-06-20T21:48:48.093Z,10.20
2023-06-20T21:51:15.112Z,10.90
2023-06-20T21:53:41.903Z,8.70
2023-06-20T21:56:08.852Z,8.80
2023-06-20T21:58:37.734Z,8.70
2023-06-20T22:01:05.181Z,9.20
2023-06-20T22:03:32.244Z,10.30
2023-06-20T22:05:59.276Z,9.40
2023-06-20T22:08:27.244Z,9.20
2023-06-20T22:11:00.153Z,9.20
2023-06-20T22:13:27.988Z,9.40
2023-06-20T22:15:55.360Z,9.60
2023-06-20T22:18:22.428Z,9.60
2023-06-20T22:20:49.820Z,9.30
2023-06-20T22:23:17.004Z,11.90
2023-06-20T22:25:43.839Z,10.70
2023-06-20T22:28:10.808Z,8.50
2023-06-20T22:30:38.068Z,9.30
2023-06-20T22:33:10.449Z,9.70
2023-06-20T22:35:37.601Z,10.90
2023-06-20T22:38:04.472Z,9.70
2023-06-20T22:40:31.665Z,10.90
2023-06-20T22:42:59.302Z,10.80
2023-06-20T22:45:26.462Z,9.00
2023-06-20T22:47:54.014Z,9.60
2023-06-20T22:50:23.115Z,8.40
2023-06-20T22:52:50.065Z,8.70
2023-06-20T22:55:17.729Z,8.70
2023-06-20T22:57:44.973Z,9.70
2023-06-20T23:00:12.795Z,8.60
2023-06-20T23:02:40.857Z,9.70
2023-06-20T23:05:08.671Z,11.50
2023-06-20T23:07:36.436Z,10.00
2023-06-20T23:10:03.852Z,9.30
2023-06-20T23:12:31.759Z,10.30
2023-06-20T23:14:59.212Z,9.40
2023-06-20T23:17:26.295Z,9.40
2023-06-20T23:19:53.432Z,10.40
2023-06-20T23:22:20.827Z,12.40
2023-06-20T23:24:47.829Z,12.20
2023-06-20T23:27:15.166Z,8.80
2023-06-20T23:29:44.974Z,9.20
2023-06-20T23:32:16.130Z,9.40
2023-06-20T23:34:43.678Z,8.60
2023-06-20T23:37:10.859Z,11.90
2023-06-20T23:39:37.796Z,12.30
2023-06-20T23:42:05.478Z,9.40
2023-06-20T23:44:35.967Z,9.60
2023-06-20T23:47:04.410Z,12.10
2023-06-20T23:49:31.397Z,11.40
2023-06-20T23:51:58.445Z,9.30
2023-06-20T23:54:26.410Z,11.60
2023-06-20T23:56:53.360Z,9.30
2023-06-20T23:59:20.405Z,9.10
